Time;durP1;ratioP1;P1;durP2;ratioP2;P2;SDS_P1;SDS_P2;PMS_P1;PMS_P2;Temp;Humidity;BMP_temperature;BMP_pressure;BME280_temperature;BME280_humidity;BME280_pressure;Samples;Min_cycle;Max_cycle;Signal;HPM_P1;HPM_P2
2023/06/09 00:00:40;;;;;;;8.20;7.50;;;21.20;90.70;;;;;;5005937;28;20230;-73
2023/06/09 00:03:07;;;;;;;7.10;6.40;;;21.30;90.60;;;;;;5021871;28;20248;-74
2023/06/09 00:05:33;;;;;;;7.97;7.10;;;21.30;90.50;;;;;;5003186;28;20224;-73
2023/06/09 00:08:00;;;;;;;8.67;7.57;;;21.20;90.60;;;;;;5011264;28;20461;-73
2023/06/09 00:10:26;;;;;;;8.53;7.63;;;21.20;90.60;;;;;;5024727;28;20563;-74
2023/06/09 00:12:53;;;;;;;8.07;7.27;;;21.20;90.50;;;;;;5008972;28;20523;-74
2023/06/09 00:15:20;;;;;;;9.90;6.80;;;21.10;90.40;;;;;;4993125;28;20483;-74
2023/06/09 00:17:46;;;;;;;8.40;7.33;;;21.00;90.70;;;;;;5006756;28;20457;-73
2023/06/09 00:20:12;;;;;;;9.60;7.93;;;21.00;90.60;;;;;;5003136;28;20456;-72
2023/06/09 00:22:44;;;;;;;7.90;7.17;;;21.00;90.70;;;;;;5007697;28;20471;-74
2023/06/09 00:25:12;;;;;;;7.83;7.03;;;20.90;90.80;;;;;;5000991;28;20243;-74
2023/06/09 00:27:41;;;;;;;7.57;6.87;;;20.90;90.90;;;;;;5010169;28;20480;-73
2023/06/09 00:30:07;;;;;;;7.70;7.00;;;20.80;91.00;;;;;;5018892;28;20452;-73
2023/06/09 00:32:34;;;;;;;7.73;6.93;;;20.80;91.00;;;;;;5012239;28;20445;-72
2023/06/09 00:34:59;;;;;;;7.10;6.43;;;20.80;91.10;;;;;;5010603;28;20444;-73
2023/06/09 00:37:25;;;;;;;9.40;7.60;;;20.80;91.10;;;;;;4998147;28;20541;-73
2023/06/09 00:39:51;;;;;;;7.60;6.77;;;20.70;91.20;;;;;;5017182;28;20313;-72
2023/06/09 00:42:16;;;;;;;8.70;7.80;;;20.60;91.30;;;;;;5012570;28;20225;-73
2023/06/09 00:44:42;;;;;;;7.40;6.80;;;20.70;91.30;;;;;;4996286;28;20233;-72
2023/06/09 00:47:08;;;;;;;7.17;6.47;;;20.70;91.20;;;;;;5010494;28;20723;-73
2023/06/09 00:49:35;;;;;;;8.20;7.40;;;20.70;91.30;;;;;;5015962;28;20588;-72
2023/06/09 00:52:02;;;;;;;8.83;7.83;;;20.60;91.20;;;;;;5012200;28;20296;-74
2023/06/09 00:54:28;;;;;;;7.60;6.90;;;20.60;91.20;;;;;;5020146;28;20470;-72
2023/06/09 00:56:55;;;;;;;9.77;7.00;;;20.60;91.10;;;;;;5011826;28;20464;-72
2023/06/09 00:59:21;;;;;;;7.93;7.10;;;20.60;91.10;;;;;;5011639;28;20542;-73
2023/06/09 01:01:47;;;;;;;7.73;6.60;;;20.70;91.00;;;;;;4992561;28;20452;-73
2023/06/09 01:04:13;;;;;;;7.10;6.50;;;20.70;90.90;;;;;;5000209;28;20514;-72
2023/06/09 01:06:39;;;;;;;8.10;7.30;;;20.60;91.00;;;;;;5009443;28;20288;-73
2023/06/09 01:09:29;;;;;;;8.17;7.03;;;20.60;91.00;;;;;;5012692;28;20232;-73
2023/06/09 01:12:19;;;;;;;8.13;7.33;;;20.50;90.90;;;;;;5017496;28;20229;-73
2023/06/09 01:15:03;;;;;;;8.20;7.40;;;20.50;91.20;;;;;;4991392;28;20476;-73
2023/06/09 01:17:32;;;;;;;10.27;7.97;;;20.40;91.20;;;;;;5019605;28;20480;-73
2023/06/09 01:20:05;;;;;;;8.50;7.37;;;20.40;91.30;;;;;;4982316;28;20479;-72
2023/06/09 01:22:57;;;;;;;9.00;8.07;;;20.40;91.30;;;;;;5003201;28;20449;-72
2023/06/09 01:25:37;;;;;;;9.20;8.17;;;20.40;91.30;;;;;;5003787;28;20449;-73
2023/06/09 01:28:23;;;;;;;10.73;8.00;;;20.30;91.40;;;;;;5004026;28;20453;-73
2023/06/09 01:30:51;;;;;;;9.30;7.27;;;20.20;91.50;;;;;;5002338;28;20498;-72
2023/06/09 01:33:23;;;;;;;8.83;8.03;;;20.20;91.70;;;;;;4998226;28;20455;-72
2023/06/09 01:35:50;;;;;;;7.43;6.60;;;20.20;91.60;;;;;;5006470;28;20489;-72
2023/06/09 01:38:17;;;;;;;12.03;6.80;;;20.20;91.70;;;;;;4995333;28;20468;-73
2023/06/09 01:40:44;;;;;;;7.20;6.50;;;20.20;91.70;;;;;;5012876;28;20495;-73
2023/06/09 01:43:10;;;;;;;7.97;7.20;;;20.10;91.70;;;;;;5007736;28;20867;-73
2023/06/09 01:45:36;;;;;;;7.70;6.90;;;20.10;91.70;;;;;;5007415;28;20453;-72
2023/06/09 01:48:22;;;;;;;8.13;6.70;;;20.10;91.90;;;;;;5007850;28;20222;-73
2023/06/09 01:50:50;;;;;;;8.23;7.53;;;20.00;91.80;;;;;;5006886;28;20221;-73
2023/06/09 01:53:22;;;;;;;8.00;7.20;;;20.00;91.90;;;;;;4999598;28;20441;-73
2023/06/09 01:56:07;;;;;;;7.20;6.60;;;20.00;91.80;;;;;;5014560;28;20598;-73
2023/06/09 01:58:41;;;;;;;12.07;7.23;;;20.00;91.90;;;;;;5005147;28;20472;-72
2023/06/09 02:01:08;;;;;;;8.53;7.73;;;19.90;91.80;;;;;;4988361;28;20452;-73
2023/06/09 02:03:38;;;;;;;7.77;7.07;;;19.90;91.90;;;;;;4991849;28;20845;-72
2023/06/09 02:06:05;;;;;;;9.30;6.43;;;19.90;92.00;;;;;;4985780;28;20467;-73
2023/06/09 02:08:31;;;;;;;8.10;7.30;;;19.80;92.00;;;;;;4998266;28;20834;-72
2023/06/09 02:10:57;;;;;;;8.07;7.27;;;19.90;92.00;;;;;;5004250;28;20483;-73
2023/06/09 02:13:22;;;;;;;7.87;7.07;;;19.90;92.00;;;;;;5006201;28;20465;-72
2023/06/09 02:15:49;;;;;;;8.67;7.23;;;19.80;91.90;;;;;;4991409;28;20919;-72
2023/06/09 02:18:20;;;;;;;7.50;6.77;;;19.80;92.00;;;;;;5001015;28;20277;-73
2023/06/09 02:20:47;;;;;;;7.77;6.93;;;19.80;92.10;;;;;;4979852;28;20461;-73
2023/06/09 02:23:13;;;;;;;13.07;7.53;;;19.80;92.10;;;;;;5002139;28;20472;-72
2023/06/09 02:25:39;;;;;;;7.23;6.53;;;19.80;92.10;;;;;;5004645;28;20562;-73
2023/06/09 02:28:06;;;;;;;7.50;6.67;;;19.80;92.20;;;;;;4985129;28;20528;-73
2023/06/09 02:30:33;;;;;;;7.50;6.77;;;19.80;92.00;;;;;;5001174;28;20230;-72
2023/06/09 02:33:00;;;;;;;7.93;7.13;;;19.80;91.90;;;;;;4996732;28;20463;-73
2023/06/09 02:35:26;;;;;;;8.33;7.53;;;19.70;91.90;;;;;;4997248;28;20523;-72
2023/06/09 02:37:53;;;;;;;17.60;7.30;;;19.70;91.80;;;;;;4998694;28;20492;-73
2023/06/09 02:40:19;;;;;;;7.90;7.20;;;19.70;92.00;;;;;;4986599;28;20967;-73
2023/06/09 02:42:46;;;;;;;8.00;7.30;;;19.60;92.00;;;;;;4996588;28;20229;-73
2023/06/09 02:45:12;;;;;;;8.27;7.37;;;19.60;92.20;;;;;;4982362;28;20492;-72
2023/06/09 02:47:39;;;;;;;8.77;7.20;;;19.70;92.20;;;;;;4981101;28;20475;-72
2023/06/09 02:50:05;;;;;;;8.57;7.77;;;19.60;92.10;;;;;;5000032;28;20461;-72
2023/06/09 02:52:32;;;;;;;8.63;7.23;;;19.60;92.20;;;;;;4984656;28;20464;-73
2023/06/09 02:54:58;;;;;;;8.47;7.67;;;19.60;92.20;;;;;;4996133;28;20519;-74
2023/06/09 02:57:26;;;;;;;8.70;7.90;;;19.50;92.30;;;;;;5001152;28;20990;-71
2023/06/09 02:59:52;;;;;;;7.30;6.70;;;19.50;92.30;;;;;;4995835;28;20530;-73
2023/06/09 03:02:19;;;;;;;8.80;7.90;;;19.50;92.10;;;;;;5000666;28;20552;-74
2023/06/09 03:04:45;;;;;;;9.07;7.60;;;19.50;92.40;;;;;;4978057;28;20544;-73
2023/06/09 03:07:13;;;;;;;8.70;7.80;;;19.50;92.50;;;;;;4991493;28;20222;-72
2023/06/09 03:09:40;;;;;;;8.97;8.07;;;19.40;92.60;;;;;;4979953;28;20468;-73
2023/06/09 03:12:08;;;;;;;9.00;8.10;;;19.40;92.60;;;;;;5000052;28;20452;-72
2023/06/09 03:14:35;;;;;;;8.27;7.37;;;19.40;92.60;;;;;;4984477;28;20457;-72
2023/06/09 03:17:04;;;;;;;7.67;6.97;;;19.30;92.60;;;;;;4991562;28;20468;-73
2023/06/09 03:19:31;;;;;;;8.83;8.00;;;19.30;92.80;;;;;;4991279;28;20469;-74
2023/06/09 03:21:58;;;;;;;9.43;7.63;;;19.30;93.00;;;;;;4995801;28;20461;-72
2023/06/09 03:24:25;;;;;;;9.07;8.10;;;19.30;93.10;;;;;;5002446;28;20950;-72
2023/06/09 03:26:52;;;;;;;8.13;7.33;;;19.20;93.10;;;;;;5000264;28;20834;-73
2023/06/09 03:29:24;;;;;;;8.23;7.47;;;19.20;93.10;;;;;;5004214;28;20471;-73
2023/06/09 03:31:50;;;;;;;8.13;7.13;;;19.20;93.30;;;;;;5004551;28;20454;-72
2023/06/09 03:34:16;;;;;;;9.90;7.13;;;19.20;93.30;;;;;;4989266;28;20872;-73
2023/06/09 03:36:42;;;;;;;7.77;6.80;;;19.20;93.10;;;;;;4993823;28;20248;-71
2023/06/09 03:39:08;;;;;;;7.67;6.97;;;19.20;93.20;;;;;;4992987;28;20991;-73
2023/06/09 03:41:34;;;;;;;9.07;7.87;;;19.20;93.30;;;;;;4994783;28;20259;-73
2023/06/09 03:44:00;;;;;;;10.50;6.70;;;19.20;93.00;;;;;;5009558;28;20324;-73
2023/06/09 03:46:25;;;;;;;6.47;5.80;;;19.30;93.10;;;;;;5012077;28;20229;-72
2023/06/09 03:48:52;;;;;;;7.57;6.87;;;19.30;93.00;;;;;;5006029;28;20296;-73
2023/06/09 03:51:20;;;;;;;7.73;6.93;;;19.20;93.10;;;;;;5015854;28;20457;-72
2023/06/09 03:53:46;;;;;;;8.00;7.20;;;19.20;93.10;;;;;;4990546;28;20536;-73
2023/06/09 03:56:13;;;;;;;11.43;7.40;;;19.20;93.10;;;;;;5004461;28;20444;-73
2023/06/09 03:58:40;;;;;;;8.60;7.80;;;19.10;93.20;;;;;;5009764;28;20468;-72
2023/06/09 04:01:10;;;;;;;8.40;7.50;;;19.10;93.30;;;;;;4981224;28;20862;-73
2023/06/09 04:03:39;;;;;;;8.20;7.13;;;19.00;93.40;;;;;;4991574;28;20460;-73
2023/06/09 04:06:06;;;;;;;7.57;6.90;;;19.00;93.30;;;;;;5007194;28;20465;-72
2023/06/09 04:08:32;;;;;;;9.07;7.13;;;19.00;93.40;;;;;;5011483;28;20547;-72
2023/06/09 04:10:58;;;;;;;8.20;6.60;;;19.00;93.40;;;;;;5001058;28;20930;-72
2023/06/09 04:13:24;;;;;;;10.40;7.40;;;19.00;93.50;;;;;;5005563;28;20225;-71
2023/06/09 04:15:49;;;;;;;8.20;6.50;;;19.00;93.50;;;;;;5008890;28;20457;-74
2023/06/09 04:18:16;;;;;;;7.97;7.03;;;19.00;93.50;;;;;;5010346;28;20230;-73
2023/06/09 04:20:42;;;;;;;7.93;6.53;;;19.00;93.60;;;;;;5008850;28;20518;-73
2023/06/09 04:23:09;;;;;;;7.40;6.70;;;19.00;93.50;;;;;;4991224;28;20305;-72
2023/06/09 04:25:37;;;;;;;7.50;6.80;;;19.10;93.50;;;;;;4997699;28;20500;-73
2023/06/09 04:28:10;;;;;;;6.30;5.70;;;19.10;93.30;;;;;;4992568;28;20449;-72
2023/06/09 04:30:38;;;;;;;8.50;7.60;;;19.10;93.40;;;;;;4994030;28;20989;-73
2023/06/09 04:33:07;;;;;;;13.97;11.37;;;19.10;93.70;;;;;;5007843;28;20524;-73
2023/06/09 04:35:34;;;;;;;15.97;11.47;;;19.00;93.70;;;;;;5009567;28;20452;-70
2023/06/09 04:38:01;;;;;;;11.93;9.80;;;19.10;93.70;;;;;;4992875;28;20537;-73
2023/06/09 04:40:29;;;;;;;8.67;7.63;;;19.10;93.80;;;;;;4989825;28;20970;-70
2023/06/09 04:42:58;;;;;;;8.10;7.20;;;19.10;93.90;;;;;;5008626;28;20457;-74
2023/06/09 04:45:33;;;;;;;8.50;7.27;;;19.10;93.70;;;;;;5009767;28;20507;-73
2023/06/09 04:48:02;;;;;;;7.00;6.30;;;19.20;94.20;;;;;;5008390;28;20493;-73
2023/06/09 04:50:32;;;;;;;9.80;6.50;;;19.20;93.90;;;;;;5008564;28;20460;-72
2023/06/09 04:53:03;;;;;;;6.57;5.97;;;19.30;93.90;;;;;;5009050;28;20886;-71
2023/06/09 04:55:30;;;;;;;6.73;6.10;;;19.30;93.90;;;;;;4994281;28;20528;-72
2023/06/09 04:57:56;;;;;;;7.00;5.53;;;19.30;94.10;;;;;;5009239;28;20461;-73
2023/06/09 05:00:26;;;;;;;6.83;5.77;;;19.30;94.10;;;;;;5007357;28;21061;-73
2023/06/09 05:02:53;;;;;;;6.33;5.80;;;19.30;94.10;;;;;;5007922;28;20512;-71
2023/06/09 05:05:20;;;;;;;6.50;5.90;;;19.30;94.10;;;;;;5011232;28;20475;-73
2023/06/09 05:07:46;;;;;;;7.30;6.30;;;19.30;94.10;;;;;;5009379;28;20514;-73
2023/06/09 05:10:12;;;;;;;6.50;5.30;;;19.30;94.30;;;;;;4995809;28;20457;-73
2023/06/09 05:12:39;;;;;;;5.90;5.40;;;19.30;94.30;;;;;;5010025;28;20213;-70
2023/06/09 05:15:06;;;;;;;7.40;5.97;;;19.30;94.70;;;;;;4992764;28;20456;-71
2023/06/09 05:17:33;;;;;;;8.47;6.27;;;19.40;94.70;;;;;;5018149;28;20461;-71
2023/06/09 05:20:00;;;;;;;7.80;5.93;;;19.40;94.70;;;;;;5003317;28;20472;-71
2023/06/09 05:22:26;;;;;;;7.83;6.00;;;19.50;94.80;;;;;;5008979;28;21022;-71
2023/06/09 05:24:53;;;;;;;6.50;5.80;;;19.50;95.00;;;;;;4997433;28;20495;-71
2023/06/09 05:27:18;;;;;;;8.17;6.70;;;19.50;94.70;;;;;;5008787;28;20496;-70
2023/06/09 05:29:45;;;;;;;9.57;6.43;;;19.50;95.10;;;;;;4983133;28;20518;-71
2023/06/09 05:32:11;;;;;;;7.87;5.73;;;19.60;95.00;;;;;;5009326;28;20985;-71
2023/06/09 05:34:36;;;;;;;6.60;5.67;;;19.60;95.20;;;;;;4987822;28;20454;-71
2023/06/09 05:37:04;;;;;;;6.47;5.87;;;19.60;95.00;;;;;;4991689;28;20823;-70
2023/06/09 05:39:30;;;;;;;9.27;6.00;;;19.70;95.10;;;;;;5009170;28;20232;-70
2023/06/09 05:41:56;;;;;;;7.07;6.40;;;19.70;94.90;;;;;;5007701;28;20453;-71
2023/06/09 05:44:22;;;;;;;6.50;5.50;;;19.80;95.20;;;;;;5009579;28;20511;-72
2023/06/09 05:46:48;;;;;;;7.23;6.40;;;19.70;95.40;;;;;;5008497;28;20228;-71
2023/06/09 05:49:13;;;;;;;7.17;5.60;;;19.80;95.50;;;;;;4993962;28;20240;-72
2023/06/09 05:51:39;;;;;;;7.50;6.10;;;19.80;95.50;;;;;;5005708;28;20313;-72
2023/06/09 05:54:06;;;;;;;5.90;5.40;;;19.80;95.60;;;;;;5003071;28;20580;-72
2023/06/09 05:56:32;;;;;;;6.27;5.67;;;19.90;95.70;;;;;;5006714;28;20284;-71
2023/06/09 05:59:02;;;;;;;6.60;6.10;;;19.90;95.80;;;;;;5005653;28;21123;-71
2023/06/09 06:01:27;;;;;;;6.23;5.47;;;20.00;96.20;;;;;;4987670;28;20461;-71
2023/06/09 06:03:53;;;;;;;7.73;5.70;;;20.10;95.80;;;;;;5006014;28;20549;-72
2023/06/09 06:06:19;;;;;;;6.70;6.07;;;20.10;96.00;;;;;;5001738;28;20634;-72
2023/06/09 06:08:45;;;;;;;6.87;6.27;;;20.20;96.40;;;;;;5002862;28;20221;-72
2023/06/09 06:11:10;;;;;;;7.10;5.63;;;20.30;96.40;;;;;;5006202;28;20210;-71
2023/06/09 06:13:36;;;;;;;6.30;5.33;;;20.30;96.50;;;;;;4991487;28;20222;-71
2023/06/09 06:16:02;;;;;;;7.57;5.93;;;20.30;96.30;;;;;;5003227;28;20283;-72
2023/06/09 06:18:27;;;;;;;6.37;5.77;;;20.40;96.70;;;;;;5017948;28;20688;-71
2023/06/09 06:20:53;;;;;;;6.50;5.90;;;20.50;96.40;;;;;;5004437;28;20309;-72
2023/06/09 06:23:19;;;;;;;7.70;6.90;;;20.50;96.70;;;;;;5005978;28;20564;-71
2023/06/09 06:25:47;;;;;;;7.67;7.00;;;20.50;96.40;;;;;;5003619;28;20228;-72
2023/06/09 06:28:14;;;;;;;7.90;5.97;;;20.50;96.50;;;;;;4988886;28;20218;-72
2023/06/09 06:30:40;;;;;;;6.53;6.03;;;20.60;96.30;;;;;;4986880;28;20465;-72
2023/06/09 06:33:07;;;;;;;7.10;6.20;;;20.60;96.80;;;;;;4982005;28;20507;-72
2023/06/09 06:35:33;;;;;;;7.03;6.33;;;20.70;97.00;;;;;;5001542;28;20246;-71
2023/06/09 06:37:59;;;;;;;6.90;6.30;;;20.70;96.80;;;;;;5002716;28;20541;-71
2023/06/09 06:40:26;;;;;;;6.47;5.87;;;20.80;96.90;;;;;;5000977;28;20552;-71
2023/06/09 06:42:52;;;;;;;6.60;6.07;;;20.80;97.00;;;;;;4999901;28;20472;-71
2023/06/09 06:45:28;;;;;;;7.90;7.03;;;20.90;97.50;;;;;;4998448;28;20468;-72
2023/06/09 06:47:54;;;;;;;7.27;6.60;;;20.90;96.80;;;;;;5000198;28;20478;-70
2023/06/09 06:50:20;;;;;;;7.40;5.60;;;21.00;96.90;;;;;;4986505;28;21032;-71
2023/06/09 06:52:48;;;;;;;8.63;5.97;;;21.30;97.10;;;;;;5013785;28;20581;-72
2023/06/09 06:55:14;;;;;;;6.77;6.17;;;21.40;96.90;;;;;;4997382;28;20720;-72
2023/06/09 06:57:40;;;;;;;7.00;5.97;;;21.50;96.70;;;;;;5002138;28;20484;-71
2023/06/09 07:00:16;;;;;;;8.10;6.20;;;21.60;96.60;;;;;;5003348;28;20471;-72
2023/06/09 07:02:46;;;;;;;6.50;6.00;;;21.60;96.40;;;;;;5002651;28;20476;-72
2023/06/09 07:05:12;;;;;;;7.43;6.73;;;21.70;96.40;;;;;;5005019;28;20912;-72
2023/06/09 07:07:38;;;;;;;7.30;6.70;;;21.70;96.30;;;;;;5007638;28;20491;-71
2023/06/09 07:10:04;;;;;;;6.70;6.10;;;21.70;96.30;;;;;;4990587;28;21000;-72
2023/06/09 07:12:32;;;;;;;6.80;6.20;;;21.70;96.00;;;;;;5004677;28;20460;-71
2023/06/09 07:14:57;;;;;;;7.47;6.77;;;21.80;96.20;;;;;;5005410;28;20483;-72
2023/06/09 07:17:23;;;;;;;7.63;6.73;;;22.00;96.10;;;;;;5006895;28;20511;-72
2023/06/09 07:19:49;;;;;;;6.80;6.20;;;22.10;96.00;;;;;;5004544;28;20279;-72
2023/06/09 07:22:15;;;;;;;7.13;6.50;;;22.00;95.80;;;;;;5003215;28;20217;-72
2023/06/09 07:24:41;;;;;;;7.10;6.50;;;22.00;95.90;;;;;;5006641;28;20225;-72
2023/06/09 07:27:08;;;;;;;7.10;6.50;;;22.10;95.80;;;;;;4991972;28;20461;-72
2023/06/09 07:29:35;;;;;;;7.07;6.37;;;22.20;95.60;;;;;;5006833;28;20591;-73
2023/06/09 07:32:02;;;;;;;7.37;6.67;;;22.40;95.60;;;;;;5004822;28;20495;-72
2023/06/09 07:34:29;;;;;;;7.10;6.50;;;22.40;95.50;;;;;;4992713;28;20504;-72
2023/06/09 07:36:54;;;;;;;6.67;6.10;;;22.50;95.30;;;;;;5007553;28;20480;-72
2023/06/09 07:39:20;;;;;;;7.37;6.77;;;22.50;95.10;;;;;;5002073;28;20465;-71
2023/06/09 07:41:46;;;;;;;7.30;6.70;;;22.50;95.40;;;;;;5009334;28;20748;-72
2023/06/09 07:44:12;;;;;;;8.20;7.40;;;22.60;95.30;;;;;;4986383;28;20209;-72
2023/06/09 07:46:37;;;;;;;7.30;6.60;;;22.60;95.40;;;;;;4994539;28;21002;-72
2023/06/09 07:49:03;;;;;;;6.93;6.30;;;22.70;95.20;;;;;;4996368;28;20225;-71
2023/06/09 07:51:29;;;;;;;7.33;6.63;;;22.80;95.40;;;;;;4994681;28;20229;-71
2023/06/09 07:53:55;;;;;;;6.73;6.17;;;22.90;94.90;;;;;;5000541;28;20222;-71
2023/06/09 07:56:21;;;;;;;9.23;6.40;;;22.90;95.10;;;;;;5005601;28;20455;-72
2023/06/09 07:58:49;;;;;;;7.20;6.50;;;23.00;94.90;;;;;;4993665;28;20472;-73
2023/06/09 08:01:15;;;;;;;7.60;7.00;;;23.10;95.00;;;;;;5006086;28;20229;-71
2023/06/09 08:03:41;;;;;;;8.47;6.60;;;23.30;95.00;;;;;;4989233;28;20571;-72
2023/06/09 08:06:08;;;;;;;6.50;5.97;;;23.30;94.80;;;;;;5011882;28;20253;-72
2023/06/09 08:08:34;;;;;;;7.10;6.50;;;23.40;94.90;;;;;;5003301;28;20224;-71
2023/06/09 08:11:00;;;;;;;6.93;6.33;;;23.40;94.80;;;;;;4998412;28;20472;-71
2023/06/09 08:13:27;;;;;;;6.30;5.80;;;23.50;94.90;;;;;;5003299;28;20894;-72
2023/06/09 08:15:53;;;;;;;7.00;6.40;;;23.60;95.00;;;;;;5002932;28;20311;-72
2023/06/09 08:18:19;;;;;;;6.43;5.87;;;23.60;95.00;;;;;;5005035;28;21033;-72
2023/06/09 08:20:45;;;;;;;8.70;6.63;;;23.80;95.00;;;;;;5003978;28;20644;-72
2023/06/09 08:23:10;;;;;;;6.57;6.07;;;23.90;94.70;;;;;;5002618;28;21012;-72
2023/06/09 08:25:37;;;;;;;6.97;6.33;;;23.90;94.40;;;;;;5005081;28;20580;-70
2023/06/09 08:28:03;;;;;;;6.77;6.17;;;24.10;94.40;;;;;;5009542;28;20216;-72
2023/06/09 08:30:28;;;;;;;7.73;7.03;;;24.20;94.50;;;;;;5000282;28;20554;-72
2023/06/09 08:32:54;;;;;;;6.70;6.00;;;24.30;94.40;;;;;;5003221;28;20312;-71
2023/06/09 08:35:21;;;;;;;7.90;7.17;;;24.40;94.30;;;;;;5010136;28;20213;-72
2023/06/09 08:37:47;;;;;;;6.97;6.37;;;24.40;94.00;;;;;;5003707;28;20221;-72
2023/06/09 08:40:13;;;;;;;6.50;5.90;;;24.40;94.30;;;;;;4983554;28;21007;-73
2023/06/09 08:42:39;;;;;;;7.37;6.40;;;24.40;94.30;;;;;;4999374;28;20504;-72
2023/06/09 08:45:06;;;;;;;7.23;6.53;;;24.70;94.40;;;;;;5004079;28;20497;-73
2023/06/09 08:47:33;;;;;;;7.30;5.73;;;24.80;94.10;;;;;;4985737;28;20460;-72
2023/06/09 08:49:59;;;;;;;7.40;6.80;;;24.90;94.10;;;;;;5002374;28;20479;-72
2023/06/09 08:52:27;;;;;;;6.67;6.17;;;24.80;93.80;;;;;;4983115;28;20507;-73
2023/06/09 08:54:56;;;;;;;7.00;6.27;;;24.90;93.80;;;;;;5002124;28;20475;-70
2023/06/09 08:57:23;;;;;;;7.23;6.63;;;24.90;93.90;;;;;;4991874;28;20485;-72
2023/06/09 08:59:50;;;;;;;6.70;6.20;;;25.00;93.80;;;;;;5005092;28;20476;-71
2023/06/09 09:02:16;;;;;;;6.70;6.10;;;25.30;93.70;;;;;;4986135;28;20471;-72
2023/06/09 09:04:43;;;;;;;7.87;7.17;;;25.50;93.40;;;;;;5003941;28;20472;-72
2023/06/09 09:07:11;;;;;;;8.67;6.60;;;25.50;93.00;;;;;;4986213;28;20475;-72
2023/06/09 09:09:37;;;;;;;7.53;6.93;;;25.40;92.80;;;;;;5006787;28;20484;-71
2023/06/09 09:12:03;;;;;;;7.40;6.80;;;25.40;93.00;;;;;;5005141;28;20891;-72
2023/06/09 09:14:29;;;;;;;7.10;6.57;;;25.40;92.90;;;;;;5003142;28;20967;-72
2023/06/09 09:16:55;;;;;;;7.30;6.60;;;25.50;92.10;;;;;;4989458;28;20466;-72
2023/06/09 09:19:28;;;;;;;7.40;6.70;;;25.60;92.50;;;;;;5007170;28;20822;-71
2023/06/09 09:21:55;;;;;;;6.87;6.33;;;25.70;92.20;;;;;;5002405;28;20305;-73
2023/06/09 09:24:21;;;;;;;6.90;6.30;;;25.70;92.20;;;;;;4985353;28;20460;-72
2023/06/09 09:26:46;;;;;;;7.27;6.67;;;25.70;92.20;;;;;;5006879;28;20472;-72
2023/06/09 09:29:12;;;;;;;7.27;6.67;;;25.90;91.90;;;;;;5004480;28;20213;-72
2023/06/09 09:31:41;;;;;;;6.80;6.20;;;26.00;91.60;;;;;;5005495;28;20213;-71
2023/06/09 09:34:12;;;;;;;7.13;6.53;;;26.10;91.50;;;;;;5000571;28;20502;-72
2023/06/09 09:36:45;;;;;;;6.90;6.30;;;26.40;91.20;;;;;;4988545;28;20492;-72
2023/06/09 09:39:11;;;;;;;6.03;5.53;;;26.20;90.90;;;;;;4979455;28;20467;-73
2023/06/09 09:41:37;;;;;;;7.27;6.67;;;26.10;90.90;;;;;;5004688;28;20468;-72
2023/06/09 09:44:03;;;;;;;7.30;6.67;;;26.30;90.90;;;;;;5003747;28;20456;-72
2023/06/09 09:46:36;;;;;;;6.13;5.63;;;26.40;90.60;;;;;;5002786;28;20217;-72
2023/06/09 09:49:05;;;;;;;6.80;6.20;;;26.40;90.30;;;;;;5004518;28;20526;-72
2023/06/09 09:51:33;;;;;;;6.30;5.80;;;26.70;90.10;;;;;;5001663;28;21187;-72
2023/06/09 09:54:00;;;;;;;6.27;5.77;;;26.80;90.20;;;;;;4983258;28;21006;-73
2023/06/09 09:56:27;;;;;;;17.90;6.00;;;26.90;90.40;;;;;;4984100;28;20457;-72
2023/06/09 09:58:53;;;;;;;6.67;6.07;;;27.10;90.10;;;;;;5003137;28;20750;-73
2023/06/09 10:01:24;;;;;;;7.10;6.47;;;26.90;90.00;;;;;;4998655;28;20225;-74
2023/06/09 10:03:53;;;;;;;6.50;5.90;;;26.90;90.10;;;;;;5003406;28;20468;-74
2023/06/09 10:06:22;;;;;;;7.07;6.43;;;26.90;89.50;;;;;;5002692;28;20870;-74
2023/06/09 10:08:48;;;;;;;10.10;6.73;;;27.10;88.90;;;;;;5003527;28;20492;-74
2023/06/09 10:11:15;;;;;;;7.20;6.60;;;27.30;89.10;;;;;;5001065;28;20225;-74
2023/06/09 10:13:42;;;;;;;6.80;6.30;;;27.30;88.90;;;;;;5002134;28;20216;-74
2023/06/09 10:16:10;;;;;;;6.40;5.78;;;27.10;88.50;;;;;;4981347;28;21443;-74
2023/06/09 10:18:39;;;;;;;6.90;6.40;;;27.10;88.30;;;;;;5002415;28;20248;-74
2023/06/09 10:21:05;;;;;;;6.77;6.23;;;27.20;88.50;;;;;;4996968;28;20725;-74
2023/06/09 10:23:32;;;;;;;6.75;6.15;;;27.30;88.60;;;;;;4998239;28;20473;-74
2023/06/09 10:25:58;;;;;;;6.90;6.30;;;27.60;88.70;;;;;;4997461;28;20252;-74
2023/06/09 10:28:25;;;;;;;6.47;5.93;;;27.60;87.90;;;;;;4984050;28;20275;-74
2023/06/09 10:30:52;;;;;;;7.40;6.70;;;27.50;87.30;;;;;;4982700;28;20218;-74
2023/06/09 10:33:36;;;;;;;7.28;6.70;;;27.50;87.70;;;;;;5002128;28;20672;-75
2023/06/09 10:36:09;;;;;;;6.80;6.30;;;27.50;87.60;;;;;;5000917;28;20319;-74
2023/06/09 10:38:47;;;;;;;7.30;6.70;;;27.60;86.90;;;;;;5000662;28;20315;-74
2023/06/09 10:41:17;;;;;;;7.47;6.68;;;27.80;86.70;;;;;;4998897;28;20237;-74
2023/06/09 10:44:01;;;;;;;6.35;5.75;;;27.70;85.50;;;;;;5003982;28;20371;-74
2023/06/09 10:46:46;;;;;;;7.20;6.60;;;27.90;85.20;;;;;;4999636;28;20217;-74
2023/06/09 10:49:36;;;;;;;6.55;5.93;;;28.00;84.20;;;;;;5015922;28;20233;-74
2023/06/09 10:52:06;;;;;;;7.45;5.35;;;28.20;84.40;;;;;;5000423;28;20225;-75
2023/06/09 10:54:35;;;;;;;6.40;5.90;;;28.20;84.30;;;;;;5000705;28;20228;-74
2023/06/09 10:57:26;;;;;;;6.47;5.88;;;28.00;84.40;;;;;;4996798;28;20300;-75
2023/06/09 10:59:54;;;;;;;7.35;6.65;;;28.00;84.30;;;;;;4991046;28;20586;-75
2023/06/09 11:02:21;;;;;;;5.72;5.32;;;28.00;84.70;;;;;;5000580;28;20211;-74
2023/06/09 11:04:48;;;;;;;6.53;5.88;;;28.40;83.60;;;;;;5002621;28;20230;-73
2023/06/09 11:07:43;;;;;;;6.40;5.90;;;28.90;82.10;;;;;;4999630;28;20303;-75
2023/06/09 11:10:11;;;;;;;6.22;5.70;;;28.90;82.50;;;;;;4983938;28;20229;-74
2023/06/09 11:12:36;;;;;;;6.85;6.25;;;28.70;82.80;;;;;;5004641;28;20217;-74
2023/06/09 11:15:03;;;;;;;7.22;5.85;;;28.50;82.80;;;;;;4999975;28;20267;-74
2023/06/09 11:17:33;;;;;;;6.60;6.00;;;28.20;82.00;;;;;;4999842;28;20679;-74
2023/06/09 11:20:11;;;;;;;7.25;5.55;;;28.20;82.20;;;;;;4981703;28;20221;-74
2023/06/09 11:22:47;;;;;;;6.25;5.75;;;28.60;82.50;;;;;;4997185;28;20259;-74
2023/06/09 11:25:19;;;;;;;6.25;5.75;;;28.90;80.50;;;;;;4978154;28;20244;-74
2023/06/09 11:28:09;;;;;;;5.97;5.47;;;29.00;79.20;;;;;;5000936;28;20225;-74
2023/06/09 11:30:59;;;;;;;5.90;5.40;;;28.90;79.20;;;;;;4983390;28;20225;-75
2023/06/09 11:34:00;;;;;;;9.45;6.45;;;28.60;79.20;;;;;;4995774;28;20229;-74
2023/06/09 11:36:27;;;;;;;5.07;4.72;;;28.40;79.50;;;;;;4934859;28;20305;-74
2023/06/09 11:39:03;;;;;;;5.38;4.97;;;28.40;79.70;;;;;;4987529;28;20708;-75
2023/06/09 11:41:30;;;;;;;9.73;6.22;;;28.60;79.40;;;;;;4996293;28;20227;-74
2023/06/09 11:43:56;;;;;;;6.00;5.50;;;28.90;79.70;;;;;;4997705;28;20236;-74
2023/06/09 11:46:23;;;;;;;6.95;5.95;;;28.90;79.00;;;;;;5002073;28;20270;-74
2023/06/09 11:48:58;;;;;;;6.15;5.55;;;28.60;78.70;;;;;;5000989;28;20229;-74
2023/06/09 11:51:24;;;;;;;6.30;5.80;;;28.70;78.60;;;;;;4985294;28;20278;-75
2023/06/09 11:53:50;;;;;;;6.10;5.70;;;29.00;78.20;;;;;;4987190;28;20230;-75
2023/06/09 11:56:16;;;;;;;6.10;5.60;;;29.10;77.90;;;;;;5001101;28;20293;-74
2023/06/09 11:58:42;;;;;;;6.75;6.15;;;29.00;77.70;;;;;;5007397;28;20233;-74
2023/06/09 12:01:08;;;;;;;7.70;6.78;;;29.10;76.70;;;;;;5002283;28;20225;-74
2023/06/09 12:03:36;;;;;;;6.72;6.13;;;29.40;75.80;;;;;;5006543;28;20235;-74
2023/06/09 12:06:02;;;;;;;5.72;5.15;;;29.50;75.80;;;;;;4989144;28;20312;-74
2023/06/09 12:08:28;;;;;;;6.10;5.53;;;29.20;76.00;;;;;;5003910;28;20252;-75
2023/06/09 12:10:54;;;;;;;6.35;5.75;;;29.40;76.10;;;;;;5003508;28;20209;-74
2023/06/09 12:13:20;;;;;;;5.95;5.43;;;29.40;75.90;;;;;;5007291;28;20628;-74
2023/06/09 12:15:52;;;;;;;6.55;6.05;;;29.00;75.10;;;;;;4989213;28;20726;-74
2023/06/09 12:18:18;;;;;;;5.88;5.43;;;28.80;74.80;;;;;;5005997;28;20248;-74
2023/06/09 12:20:46;;;;;;;6.03;5.53;;;28.90;74.60;;;;;;5001912;28;20902;-75
2023/06/09 12:23:14;;;;;;;5.57;5.18;;;28.70;74.20;;;;;;5002612;28;20225;-74
2023/06/09 12:25:45;;;;;;;5.55;5.10;;;28.50;74.50;;;;;;5006329;28;20314;-75
2023/06/09 12:28:16;;;;;;;5.60;5.20;;;28.40;73.70;;;;;;5005048;28;20711;-73
2023/06/09 12:30:47;;;;;;;5.55;5.05;;;28.70;72.90;;;;;;5000261;28;20854;-74
2023/06/09 12:33:16;;;;;;;5.60;5.15;;;29.00;73.70;;;;;;5005447;28;20221;-75
2023/06/09 12:35:43;;;;;;;5.75;5.35;;;28.70;73.30;;;;;;5008028;28;20308;-74
2023/06/09 12:38:09;;;;;;;6.20;5.70;;;28.60;73.20;;;;;;5006925;28;20237;-74
2023/06/09 12:41:03;;;;;;;6.80;6.20;;;28.80;73.20;;;;;;4984010;28;20615;-75
2023/06/09 12:43:45;;;;;;;5.88;5.32;;;28.90;73.50;;;;;;4990283;28;20217;-74
2023/06/09 12:46:11;;;;;;;5.82;5.43;;;29.30;73.10;;;;;;5002689;28;20295;-74
2023/06/09 12:48:56;;;;;;;6.10;5.50;;;29.30;73.40;;;;;;5007143;28;20225;-74
2023/06/09 12:51:23;;;;;;;6.20;5.70;;;29.10;73.70;;;;;;5018621;28;20245;-74